Laughlin Air Force Base
KDLF : now visible

Airfield :











YOU CAN JOIN US ON...

 
LOGIN :

Register | Disclaimer

   EN    FR    IT 

 









Legend :    VFR   Marginal VFR   IFR   Intensive IFR   Very Intensive IFR
Visi :
Ceiling :
>= 8 km
>= 3000ft
5 to 8 km
1000 to 3000 ft
1500m to 5 km
500 to 1000 ft
800 to 1500m
200 to 500 ft
< 800m
< 200 ft
Symbols :   Thunderstorms  Fog  Heavy snow  Heavy precipitations  Wind > 20 kt






- Airport Elevation : 1082 ft


KDLF - Laughlin Air Force Base

CURRENT METAR :
  • 221356Z 12010KT 2SM -DZ BKN006 OVC011 14/13 A3002 RMK AO2A DZE1256DZB1259E01RAB01E11DZB11 CIG 005 RWY31 SLP161 P0000 T01350132 $

EXPIRED METARs :
  • 221340Z 12009KT 3SM -DZ OVC012 13/13 A3002 RMK AO2A TWR VIS 2SM DZE1256DZB1259 CIG 005 RWY31 SLP161 $
  • 221327Z 12010KT 3SM -DZ OVC012 14/13 A3001 RMK AO2A DZE1256DZB1259E01RAB01E11DZB11 CIG 005 RWY31 SLP158 $
  • 221256Z 13011KT 3SM DZ OVC016 14/11 A3002 RMK AO2A SLP161 T01390114 $
  • 221247Z 13009KT 6SM -DZ OVC016 14/11 A3001 RMK AO2A SLP158 $
  • 221236Z AUTO 13011KT 10SM OVC018 14/11 A3000 RMK AO2 SLP154 $
  • 221156Z 13014KT 6SM BR OVC023 15/10 A2998 RMK AO2A CIG 022 RWY31 SLP147 T01510103 10161 20151 53001 $

TAF TAF KDLF
Valid from the 22 at 12:00 until the 23 at 18:00 UTC


221200Z 2212/2318 13012G18KT 8000 -DZ OVC020 QNH2998INS
BECMG 2212/2213 14012KT 8000 -SHRA OVC010 QNH2998INS
TEMPO 2214/2217 14009KT 4800 BR BKN005
BECMG 2218/2219 13012G18KT 9999 NSW BKN020 QNH2988INS
BECMG 2302/2303 12009KT 9000 BR OVC010 QNH2986INS
BECMG 2311/2312 13012KT 8000 BR OVC007 QNH2979INS TX21/2221Z TN15/2212Z
KZHU FIR / North America



MET'MAP, your aeronautical weather chart ! - Copyright ORBIFLY December 2007 - Disclaimer

ORBIFLY MET'MAP TEAM :

Programming & Development : Alexandra Zaïnal
Concept & original design : Baudouin d'Aumeries
Assistance for programming : Marc-Olivier Méhu
Technical & hardware support : Manuel Goepfert

Contact : metmap@orbifly.com




SOURCES & CREDITS :

   NOAA       Earth
Advisory